Impacts TAF Board
For situational awareness. Not to be used for flight planning purposes.
IDs:

KLBE - Latrobe/Palmer Rgnl, PA, US

Issued at 1748 UTC 02 Oct 2022
Updated at 1837 UTC 02 Oct 2022
Potential Impact None Slight Moderate High
Time1747Z 02/19Z 02/20Z 02/21Z 02/22Z 02/23Z 03/00Z 03/01Z 03/02Z 03/03Z 03/04Z 03/05Z 03/06Z 03/07Z>>
Type OBS PRVL PRVL PRVL PRVL PRVL PRVL PRVL PRVL PRVL PRVL PRVL PRVL PRVL
VIS 1 >6 >6 >6 >6 >6 >6 >6 >6 >6 >6 >6 >6 >6
CIG 15 20 20 50 50 50 -- -- -- -- -- -- -- --
Cover OVC OVC OVC BKN BKN BKN SKC SKC SKC SKC SKC SKC SKC SKC
FltCat IFR MVFR MVFR VFR VFR VFR VFR VFR VFR VFR VFR VFR VFR VFR
WX -RA VCSH VCSH -- -- -- -- -- -- -- -- -- -- --
WDir 20 20 20 40 40 40 50 50 50 50 50 50 50 50
WSpd 10 8 8 8 8 8 5 5 5 5 5 5 5 5
WGst -- -- -- -- -- -- -- -- -- -- -- -- -- --
WSHgt -- -- -- -- -- -- -- -- -- -- -- -- -- --
WSDir -- -- -- -- -- -- -- -- -- -- -- -- -- --
WSSpd -- -- -- -- -- -- -- -- -- -- -- -- -- --
Raw TAF
KLBE 021748Z 0218/0318 02009KT 1SM -RA SCT009 OVC015
  FM021900 02008KT P6SM VCSH OVC020
  FM022100 04008KT P6SM BKN050
  FM030000 05005KT P6SM SKC


Raw METAR
KLBE 021747Z 02010KT 1SM -RA SCT009 OVC015 12/12 A3015
KLBE 021647Z 01008G16KT 10SM OVC019 12/11 A3014
KLBE 021547Z 02007KT 10SM OVC017 12/11 A3013

METAR Board
Radar Display
Forecast Discussion
For situational awareness. Not to be used for flight planning purposes.